createdAt,value
2019-01-20T00:00:33.309Z,28.87
2019-01-20T00:03:13.861Z,29.90
2019-01-20T00:05:54.784Z,31.97
2019-01-20T00:08:35.330Z,32.27
2019-01-20T00:11:16.966Z,32.37
2019-01-20T00:13:58.122Z,29.50
2019-01-20T00:16:38.453Z,29.17
2019-01-20T00:19:19.654Z,29.47
2019-01-20T00:22:00.082Z,29.43
2019-01-20T00:24:41.002Z,28.67
2019-01-20T00:27:21.613Z,30.73
2019-01-20T00:30:02.119Z,27.97
2019-01-20T00:32:43.147Z,30.23
2019-01-20T00:35:23.936Z,28.13
2019-01-20T00:38:04.977Z,26.83
2019-01-20T00:40:45.533Z,27.60
2019-01-20T00:43:26.482Z,33.80
2019-01-20T00:46:07.173Z,30.70
2019-01-20T00:48:47.920Z,29.97
2019-01-20T00:51:29.007Z,29.87
2019-01-20T00:54:10.251Z,29.17
2019-01-20T00:56:50.947Z,31.27
2019-01-20T00:59:31.693Z,28.90
2019-01-20T01:02:12.584Z,30.43
2019-01-20T01:04:52.805Z,25.57
2019-01-20T01:07:33.721Z,31.97
2019-01-20T01:10:14.663Z,30.93
2019-01-20T01:12:55.336Z,28.80
2019-01-20T01:15:36.024Z,26.83
2019-01-20T01:18:16.975Z,32.20
2019-01-20T01:20:58.125Z,41.70
2019-01-20T01:23:38.840Z,28.00
2019-01-20T01:26:19.421Z,27.73
2019-01-20T01:29:00.477Z,30.47
2019-01-20T01:31:41.081Z,28.97
2019-01-20T01:34:22.096Z,26.90
2019-01-20T01:37:02.568Z,30.13
2019-01-20T01:39:43.095Z,31.13
2019-01-20T01:42:23.952Z,35.50
2019-01-20T01:45:04.673Z,32.13
2019-01-20T01:47:45.454Z,33.97
2019-01-20T01:50:26.466Z,27.83
2019-01-20T01:53:06.910Z,33.87
2019-01-20T01:55:47.570Z,30.20
2019-01-20T01:58:28.965Z,32.27
2019-01-20T02:01:09.651Z,32.03
2019-01-20T02:03:50.400Z,30.83
2019-01-20T02:06:31.609Z,33.73
2019-01-20T02:09:12.588Z,30.07
2019-01-20T02:11:53.404Z,29.77
2019-01-20T02:14:33.891Z,32.47
2019-01-20T02:17:14.565Z,29.87
2019-01-20T02:19:55.937Z,34.03
2019-01-20T02:22:36.547Z,30.23
2019-01-20T02:25:17.508Z,29.20
2019-01-20T02:27:58.768Z,38.47
2019-01-20T02:30:48.444Z,30.00
2019-01-20T02:33:36.272Z,34.03
2019-01-20T02:36:24.056Z,30.77
2019-01-20T02:39:11.805Z,34.67
2019-01-20T02:41:59.796Z,31.33
2019-01-20T02:44:47.914Z,32.80
2019-01-20T02:47:36.170Z,35.37
2019-01-20T02:50:23.917Z,32.90
2019-01-20T02:53:11.685Z,37.17
2019-01-20T02:55:59.420Z,32.53
2019-01-20T02:58:47.189Z,32.27
2019-01-20T03:01:34.936Z,39.80
2019-01-20T03:04:22.696Z,42.03
2019-01-20T03:07:10.552Z,42.53
2019-01-20T03:09:58.309Z,35.93
2019-01-20T03:12:46.060Z,34.33
2019-01-20T03:15:33.824Z,33.70
2019-01-20T03:18:21.925Z,35.47
2019-01-20T03:21:02.137Z,36.97
2019-01-20T03:23:43.050Z,36.93
2019-01-20T03:26:23.937Z,34.67
2019-01-20T03:29:04.726Z,34.97
2019-01-20T03:31:45.770Z,34.50
2019-01-20T03:34:26.644Z,37.40
2019-01-20T03:37:07.415Z,34.17
2019-01-20T03:39:48.436Z,33.93
2019-01-20T03:42:29.266Z,37.80
2019-01-20T03:45:09.768Z,33.80
2019-01-20T03:47:50.017Z,32.70
2019-01-20T03:50:30.958Z,36.53
2019-01-20T03:53:11.570Z,33.60
2019-01-20T03:55:52.373Z,36.63
2019-01-20T03:58:32.977Z,35.90
2019-01-20T04:01:13.373Z,34.67
2019-01-20T04:03:41.804Z,33.93
2019-01-20T04:06:29.548Z,35.20
2019-01-20T04:09:09.929Z,33.37
2019-01-20T04:11:51.134Z,34.77
2019-01-20T04:14:31.777Z,34.43
2019-01-20T04:17:12.468Z,34.80
2019-01-20T04:19:53.024Z,36.03
2019-01-20T04:22:34.063Z,32.00
2019-01-20T04:25:15.021Z,33.70
2019-01-20T04:27:55.505Z,35.53
2019-01-20T04:30:36.327Z,35.50
2019-01-20T04:33:15.498Z,33.10
2019-01-20T04:36:03.276Z,37.40
2019-01-20T04:38:51.175Z,38.60
2019-01-20T04:41:38.940Z,35.73
2019-01-20T04:44:26.686Z,34.00
2019-01-20T04:47:14.464Z,30.73
2019-01-20T04:50:02.210Z,32.83
2019-01-20T04:52:50.183Z,30.90
2019-01-20T04:55:37.929Z,33.70
2019-01-20T04:58:25.688Z,32.73
2019-01-20T05:01:13.438Z,35.50
2019-01-20T05:04:01.194Z,34.73
2019-01-20T05:06:49.036Z,34.27
2019-01-20T05:09:36.871Z,33.73
2019-01-20T05:12:24.616Z,34.27
2019-01-20T05:15:33.116Z,34.10
2019-01-20T05:18:13.272Z,33.40
2019-01-20T05:20:54.005Z,34.30
2019-01-20T05:23:34.917Z,34.77
2019-01-20T05:26:15.796Z,35.73
2019-01-20T05:28:56.070Z,40.57
2019-01-20T05:31:36.813Z,34.17
2019-01-20T05:34:17.444Z,36.13
2019-01-20T05:36:57.941Z,40.80
2019-01-20T05:39:38.983Z,41.23
2019-01-20T05:42:19.696Z,40.90
2019-01-20T05:45:00.761Z,35.60
2019-01-20T05:47:41.794Z,39.03
2019-01-20T05:50:22.800Z,38.63
2019-01-20T05:53:03.519Z,40.83
2019-01-20T05:55:44.257Z,36.90
2019-01-20T05:58:25.231Z,36.43
2019-01-20T06:01:06.072Z,36.93
2019-01-20T06:03:47.078Z,37.00
2019-01-20T06:06:28.028Z,36.67
2019-01-20T06:09:08.786Z,36.23
2019-01-20T06:11:49.673Z,35.93
2019-01-20T06:14:30.221Z,31.20
2019-01-20T06:17:11.353Z,30.37
2019-01-20T06:19:51.901Z,35.97
2019-01-20T06:22:32.465Z,35.13
2019-01-20T06:25:13.187Z,35.70
2019-01-20T06:27:54.099Z,33.53
2019-01-20T06:30:35.039Z,34.77
2019-01-20T06:35:58.460Z,34.53
2019-01-20T06:38:39.165Z,32.17
2019-01-20T06:41:19.927Z,34.60
2019-01-20T06:44:00.457Z,30.20
2019-01-20T06:46:41.229Z,34.83
2019-01-20T06:49:22.397Z,29.43
2019-01-20T06:52:03.246Z,30.50
2019-01-20T06:54:43.993Z,34.43
2019-01-20T06:57:24.503Z,31.20
2019-01-20T07:00:05.064Z,28.30
2019-01-20T07:02:46.057Z,29.27
2019-01-20T07:05:26.493Z,31.30
2019-01-20T07:08:07.312Z,29.40
2019-01-20T07:10:47.874Z,29.30
2019-01-20T07:13:28.486Z,30.90
2019-01-20T07:16:09.090Z,28.90
2019-01-20T07:18:49.889Z,27.53
2019-01-20T07:21:30.228Z,29.63
2019-01-20T07:24:11.777Z,32.43
2019-01-20T07:26:52.941Z,30.80
2019-01-20T07:29:33.710Z,28.33
2019-01-20T07:32:14.661Z,29.40
2019-01-20T07:34:55.533Z,28.90
2019-01-20T07:37:35.854Z,32.93
2019-01-20T07:40:16.856Z,30.77
2019-01-20T07:42:57.492Z,28.90
2019-01-20T07:45:37.852Z,30.47
2019-01-20T07:48:18.754Z,27.97
2019-01-20T07:50:59.379Z,30.33
2019-01-20T07:53:40.224Z,30.00
2019-01-20T07:56:20.756Z,32.30
2019-01-20T07:59:01.172Z,29.73
2019-01-20T08:01:41.853Z,29.30
2019-01-20T08:04:22.293Z,32.00
2019-01-20T08:07:03.370Z,30.83
2019-01-20T08:09:43.796Z,32.77
2019-01-20T08:12:24.557Z,29.57
2019-01-20T08:15:05.152Z,32.07
2019-01-20T08:17:46.025Z,30.90
2019-01-20T08:20:26.782Z,28.17
2019-01-20T08:23:07.643Z,32.30
2019-01-20T08:25:48.691Z,31.07
2019-01-20T08:28:30.988Z,32.03
2019-01-20T08:30:59.399Z,28.30
2019-01-20T08:33:47.164Z,30.33
2019-01-20T08:36:34.913Z,32.37
2019-01-20T08:42:17.557Z,28.00
2019-01-20T08:45:26.348Z,30.37
2019-01-20T08:48:34.892Z,25.23
2019-01-20T08:51:22.909Z,26.83
2019-01-20T08:54:10.688Z,30.50
2019-01-20T08:56:58.461Z,28.50
2019-01-20T08:59:46.221Z,29.03
2019-01-20T09:02:34.212Z,28.40
2019-01-20T09:05:21.972Z,29.93
2019-01-20T09:08:09.752Z,28.90
2019-01-20T09:10:57.558Z,29.77
2019-01-20T09:13:45.360Z,28.60
2019-01-20T09:16:33.208Z,28.97
2019-01-20T09:19:20.977Z,27.53
2019-01-20T09:22:08.760Z,27.03
2019-01-20T09:24:56.691Z,27.50
2019-01-20T09:27:44.526Z,28.57
2019-01-20T09:30:32.281Z,28.10
2019-01-20T09:33:13.285Z,27.00
2019-01-20T09:35:56.919Z,27.53
2019-01-20T09:38:37.786Z,28.17
2019-01-20T09:41:18.457Z,35.13
2019-01-20T09:43:59.147Z,30.57
2019-01-20T09:46:40.251Z,29.23
2019-01-20T09:49:28.087Z,30.10
2019-01-20T09:52:16.103Z,32.13
2019-01-20T09:55:05.835Z,34.47
2019-01-20T09:57:53.892Z,31.40
2019-01-20T10:00:41.648Z,34.43
2019-01-20T10:03:29.409Z,37.03
2019-01-20T10:06:17.190Z,33.97
2019-01-20T10:09:25.676Z,33.17
2019-01-20T10:12:13.416Z,32.67
2019-01-20T10:15:01.302Z,34.03
2019-01-20T10:17:49.076Z,35.93
2019-01-20T10:20:39.213Z,35.73
2019-01-20T10:23:27.021Z,35.07
2019-01-20T10:26:08.053Z,35.27
2019-01-20T10:28:48.777Z,35.43
2019-01-20T10:31:29.615Z,32.97
2019-01-20T10:34:10.584Z,35.07
2019-01-20T10:36:51.161Z,37.57
2019-01-20T10:39:32.376Z,35.23
2019-01-20T10:42:13.286Z,37.67
2019-01-20T10:44:53.804Z,33.67
2019-01-20T10:47:34.725Z,36.37
2019-01-20T10:50:15.373Z,33.87
2019-01-20T10:52:56.606Z,33.70
2019-01-20T10:55:37.654Z,35.83
2019-01-20T10:58:18.248Z,35.30
2019-01-20T11:00:59.011Z,35.13
2019-01-20T11:03:40.080Z,34.50
2019-01-20T11:06:21.246Z,36.43
2019-01-20T11:09:04.673Z,37.97
2019-01-20T11:11:45.016Z,35.97
2019-01-20T11:14:25.373Z,34.10
2019-01-20T11:17:06.296Z,34.57
2019-01-20T11:19:46.961Z,37.07
2019-01-20T11:22:29.342Z,34.53
2019-01-20T11:25:10.141Z,36.40
2019-01-20T11:27:50.649Z,33.43
2019-01-20T11:30:31.436Z,33.33
2019-01-20T11:33:12.430Z,32.67
2019-01-20T11:35:53.168Z,31.10
2019-01-20T11:38:33.790Z,36.60
2019-01-20T11:41:14.237Z,32.57
2019-01-20T11:43:55.005Z,33.13
2019-01-20T11:46:35.735Z,33.47
2019-01-20T11:49:16.429Z,33.80
2019-01-20T11:51:57.128Z,30.37
2019-01-20T11:54:37.887Z,32.77
2019-01-20T11:57:18.621Z,33.10
2019-01-20T11:59:59.382Z,34.03
2019-01-20T12:02:39.917Z,33.70
2019-01-20T12:05:20.780Z,29.60
2019-01-20T12:08:01.749Z,33.40
2019-01-20T12:10:43.173Z,32.43
2019-01-20T12:13:26.441Z,31.87
2019-01-20T12:16:07.344Z,33.03
2019-01-20T12:18:48.013Z,33.87
2019-01-20T12:21:26.846Z,33.90
2019-01-20T12:24:14.600Z,30.03
2019-01-20T12:27:02.374Z,31.30
2019-01-20T12:29:51.938Z,31.23
2019-01-20T12:32:39.754Z,33.37
2019-01-20T12:35:27.558Z,31.00
2019-01-20T12:38:15.317Z,32.37
2019-01-20T12:41:03.084Z,33.30
2019-01-20T12:43:50.921Z,33.90
2019-01-20T12:46:38.793Z,30.33
2019-01-20T12:49:26.552Z,31.17
2019-01-20T12:52:14.293Z,32.50
2019-01-20T12:55:02.385Z,31.80
2019-01-20T12:57:50.155Z,34.83
2019-01-20T13:00:37.895Z,33.10
2019-01-20T13:03:18.660Z,33.80
2019-01-20T13:05:59.345Z,34.43
2019-01-20T13:08:43.350Z,32.20
2019-01-20T13:11:24.210Z,34.03
2019-01-20T13:14:05.253Z,32.67
2019-01-20T13:16:45.802Z,32.40
2019-01-20T13:19:36.911Z,33.33
2019-01-20T13:22:10.324Z,34.67
2019-01-20T13:24:51.277Z,39.90
2019-01-20T13:27:32.030Z,37.63
2019-01-20T13:30:12.580Z,33.90
2019-01-20T13:32:53.350Z,34.47
2019-01-20T13:35:34.083Z,37.37
2019-01-20T13:38:15.052Z,36.93
2019-01-20T13:40:55.366Z,36.93
2019-01-20T13:43:36.033Z,37.00
2019-01-20T13:46:16.901Z,35.70
2019-01-20T13:48:57.823Z,36.67
2019-01-20T13:51:38.872Z,35.80
2019-01-20T13:54:19.731Z,36.03
2019-01-20T13:57:00.342Z,33.60
2019-01-20T13:59:41.174Z,37.30
2019-01-20T14:02:22.189Z,37.13
2019-01-20T14:05:02.747Z,35.80
2019-01-20T14:07:43.351Z,37.13
2019-01-20T14:10:23.807Z,35.77
2019-01-20T14:13:04.326Z,38.37
2019-01-20T14:15:44.991Z,36.90
2019-01-20T14:18:25.583Z,38.17
2019-01-20T14:21:06.177Z,36.73
2019-01-20T14:23:47.350Z,40.07
2019-01-20T14:26:27.809Z,41.93
2019-01-20T14:29:08.624Z,37.03
2019-01-20T14:31:49.061Z,42.23
2019-01-20T14:34:30.085Z,40.43
2019-01-20T14:37:10.751Z,36.60
2019-01-20T14:39:51.680Z,37.17
2019-01-20T14:42:33.106Z,38.27
2019-01-20T14:45:13.825Z,35.53
2019-01-20T14:47:55.160Z,36.33
2019-01-20T14:50:35.713Z,36.57
2019-01-20T14:53:16.477Z,36.17
2019-01-20T14:55:57.298Z,33.93
2019-01-20T14:58:38.119Z,35.00
2019-01-20T15:01:19.041Z,39.90
2019-01-20T15:03:59.562Z,35.93
2019-01-20T15:06:40.496Z,38.00
2019-01-20T15:09:21.582Z,39.37
2019-01-20T15:12:02.450Z,35.23
2019-01-20T15:14:43.411Z,35.60
2019-01-20T15:17:24.466Z,40.33
2019-01-20T15:20:05.254Z,37.83
2019-01-20T15:22:45.841Z,37.63
2019-01-20T15:25:26.584Z,39.03
2019-01-20T15:28:07.444Z,37.27
2019-01-20T15:30:48.352Z,40.17
2019-01-20T15:33:29.473Z,36.00
2019-01-20T15:36:10.541Z,37.33
2019-01-20T15:38:51.381Z,38.10
2019-01-20T15:41:32.405Z,37.83
2019-01-20T15:44:12.744Z,39.70
2019-01-20T15:46:53.387Z,43.53
2019-01-20T15:49:34.301Z,39.50
2019-01-20T15:52:15.133Z,39.70
2019-01-20T15:54:55.747Z,40.83
2019-01-20T15:57:36.471Z,39.83
2019-01-20T16:00:17.483Z,39.87
2019-01-20T16:02:58.480Z,39.90
2019-01-20T16:05:39.163Z,39.57
2019-01-20T16:08:20.345Z,39.63
2019-01-20T16:11:00.913Z,36.47
2019-01-20T16:13:41.547Z,38.97
2019-01-20T16:16:21.980Z,41.47
2019-01-20T16:19:03.114Z,42.10
2019-01-20T16:24:26.689Z,42.00
2019-01-20T16:29:51.968Z,42.17
2019-01-20T16:32:32.679Z,45.73
2019-01-20T16:35:13.774Z,41.57
2019-01-20T16:37:54.727Z,38.57
2019-01-20T16:40:35.769Z,40.23
2019-01-20T16:43:16.666Z,36.33
2019-01-20T16:45:57.476Z,36.73
2019-01-20T16:48:38.353Z,40.10
2019-01-20T16:51:19.220Z,39.57
2019-01-20T16:54:00.456Z,40.70
2019-01-20T16:56:28.937Z,38.00
2019-01-20T16:59:16.720Z,37.73
2019-01-20T17:02:04.493Z,39.53
2019-01-20T17:04:52.269Z,39.83
2019-01-20T17:07:40.009Z,41.20
2019-01-20T17:10:48.597Z,45.10
2019-01-20T17:13:36.359Z,41.20
2019-01-20T17:16:24.357Z,42.23
2019-01-20T17:19:17.580Z,43.87
2019-01-20T17:22:01.868Z,46.33
2019-01-20T17:24:49.631Z,46.10
2019-01-20T17:27:30.253Z,46.23
2019-01-20T17:30:11.228Z,46.03
2019-01-20T17:32:52.052Z,43.47
2019-01-20T17:35:32.982Z,45.37
2019-01-20T17:38:13.941Z,51.07
2019-01-20T17:40:54.747Z,44.63
2019-01-20T17:43:36.849Z,45.23
2019-01-20T17:46:17.129Z,47.70
2019-01-20T17:48:57.897Z,48.20
2019-01-20T17:51:38.510Z,49.40
2019-01-20T17:54:19.709Z,51.07
2019-01-20T17:57:00.229Z,49.97
2019-01-20T17:59:40.925Z,47.33
2019-01-20T18:02:21.367Z,49.07
2019-01-20T18:05:02.034Z,48.33
2019-01-20T18:07:42.602Z,47.60
2019-01-20T18:10:22.910Z,48.07
2019-01-20T18:13:03.350Z,52.50
2019-01-20T18:15:44.481Z,47.37
2019-01-20T18:18:25.349Z,46.23
2019-01-20T18:21:06.577Z,46.20
2019-01-20T18:23:47.192Z,52.57
2019-01-20T18:26:27.937Z,49.83
2019-01-20T18:29:08.899Z,47.90
2019-01-20T18:31:49.408Z,48.87
2019-01-20T18:34:30.624Z,48.40
2019-01-20T18:37:11.103Z,47.13
2019-01-20T18:39:52.012Z,47.40
2019-01-20T18:42:32.741Z,50.67
2019-01-20T18:45:13.546Z,51.03
2019-01-20T18:47:54.260Z,52.83
2019-01-20T18:50:35.363Z,51.50
2019-01-20T18:53:16.004Z,47.93
2019-01-20T18:55:56.851Z,53.10
2019-01-20T18:58:37.533Z,54.47
2019-01-20T19:01:18.223Z,54.33
2019-01-20T19:03:58.775Z,52.10
2019-01-20T19:06:39.216Z,58.13
2019-01-20T19:09:20.470Z,59.00
2019-01-20T19:12:01.318Z,56.33
2019-01-20T19:14:41.669Z,57.30
2019-01-20T19:17:23.676Z,61.20
2019-01-20T19:20:04.044Z,54.63
2019-01-20T19:22:44.660Z,54.70
2019-01-20T19:25:25.375Z,53.57
2019-01-20T19:28:05.904Z,54.67
2019-01-20T19:30:46.552Z,59.67
2019-01-20T19:33:27.474Z,56.70
2019-01-20T19:36:08.254Z,52.50
2019-01-20T19:38:48.775Z,57.03
2019-01-20T19:41:29.491Z,64.80
2019-01-20T19:44:10.011Z,56.87
2019-01-20T19:46:50.864Z,58.60
2019-01-20T19:49:31.866Z,55.87
2019-01-20T19:52:12.458Z,54.93
2019-01-20T19:54:53.338Z,58.13
2019-01-20T19:57:34.442Z,52.57
2019-01-20T20:00:15.287Z,53.80
2019-01-20T20:02:55.990Z,60.53
2019-01-20T20:05:37.505Z,57.07
2019-01-20T20:08:18.296Z,60.47
2019-01-20T20:10:59.689Z,56.87
2019-01-20T20:13:40.153Z,56.00
2019-01-20T20:16:23.502Z,60.30
2019-01-20T20:19:03.625Z,58.40
2019-01-20T20:21:44.563Z,58.57
2019-01-20T20:24:25.835Z,63.70
2019-01-20T20:27:06.476Z,57.53
2019-01-20T20:29:46.934Z,59.27
2019-01-20T20:32:27.415Z,56.87
2019-01-20T20:35:07.985Z,59.80
2019-01-20T20:37:48.690Z,72.67
2019-01-20T20:40:29.320Z,62.70
2019-01-20T20:43:10.264Z,63.27
2019-01-20T20:45:51.184Z,61.60
2019-01-20T20:48:31.979Z,59.90
2019-01-20T20:51:13.038Z,49.20
2019-01-20T20:53:53.764Z,46.67
2019-01-20T20:56:34.550Z,50.47
2019-01-20T20:59:15.741Z,52.83
2019-01-20T21:01:56.081Z,56.00
2019-01-20T21:04:36.395Z,66.33
2019-01-20T21:07:17.259Z,59.57
2019-01-20T21:09:57.990Z,61.10
2019-01-20T21:12:38.604Z,63.40
2019-01-20T21:15:19.084Z,58.37
2019-01-20T21:17:59.873Z,59.23
2019-01-20T21:20:41.236Z,58.00
2019-01-20T21:23:22.081Z,59.23
2019-01-20T21:26:02.577Z,53.03
2019-01-20T21:28:43.547Z,57.67
2019-01-20T21:31:24.299Z,58.37
2019-01-20T21:34:04.981Z,69.17
2019-01-20T21:36:45.958Z,74.20
2019-01-20T21:39:26.845Z,57.10
2019-01-20T21:42:07.744Z,60.37
2019-01-20T21:44:48.828Z,55.73
2019-01-20T21:47:29.449Z,55.63
2019-01-20T21:50:09.850Z,57.93
2019-01-20T21:52:50.362Z,53.23
2019-01-20T21:55:30.722Z,55.50
2019-01-20T21:58:11.712Z,55.73
2019-01-20T22:00:52.659Z,53.20
2019-01-20T22:03:33.469Z,54.50
2019-01-20T22:06:13.786Z,50.90
2019-01-20T22:08:54.269Z,52.50
2019-01-20T22:11:34.785Z,52.77
2019-01-20T22:14:15.680Z,53.13
2019-01-20T22:16:56.702Z,55.70
2019-01-20T22:19:37.617Z,54.63
2019-01-20T22:22:18.228Z,55.37
2019-01-20T22:24:59.134Z,53.93
2019-01-20T22:27:40.129Z,60.20
2019-01-20T22:30:21.038Z,55.43
2019-01-20T22:33:02.026Z,52.73
2019-01-20T22:35:42.357Z,55.93
2019-01-20T22:38:23.387Z,51.10
2019-01-20T22:41:03.913Z,57.73
2019-01-20T22:43:44.541Z,56.33
2019-01-20T22:46:25.404Z,55.43
2019-01-20T22:49:06.194Z,54.27
2019-01-20T22:51:49.073Z,56.40
2019-01-20T22:54:29.698Z,56.30
2019-01-20T22:57:10.490Z,56.20
2019-01-20T22:59:51.265Z,58.77
2019-01-20T23:02:31.873Z,61.67
2019-01-20T23:05:12.888Z,57.50
2019-01-20T23:07:53.485Z,61.63
2019-01-20T23:10:33.896Z,59.83
2019-01-20T23:13:14.502Z,60.37
2019-01-20T23:15:55.228Z,59.00
2019-01-20T23:18:35.769Z,56.70
2019-01-20T23:21:16.573Z,55.63
2019-01-20T23:23:57.082Z,63.67
2019-01-20T23:26:38.820Z,56.03
2019-01-20T23:29:19.908Z,57.90
2019-01-20T23:32:00.132Z,55.27
2019-01-20T23:34:41.056Z,56.03
2019-01-20T23:37:21.793Z,60.07
2019-01-20T23:40:02.339Z,58.30
2019-01-20T23:42:43.365Z,60.17
2019-01-20T23:45:24.118Z,54.93
2019-01-20T23:47:52.615Z,58.00
2019-01-20T23:50:40.476Z,54.63
2019-01-20T23:53:28.589Z,56.47
2019-01-20T23:56:16.377Z,52.80
2019-01-20T23:59:04.443Z,51.67
